Historyczne dane pomiarowe

Dodano dane terminowe – wersja testowa.

Dane z okresu 1951-2019

Wersja bazy: 1.34 [2019-03-16, lista zmian], aktualizacja planowana na 2019-04-15

Dane meteo z obszaru Polski uzyskane na podstawie danych udostępnionych przez Instytut Meteorologii i Gospodarki Wodnej – Państwowy Instytut Badawczy.

 

Wybierz Datę:    

       

TemperaturaWilgotnośćWiatrCiśnienieOpadyŚniegCzas trwania zjawisk
 Stacja t tx tn tng RH VA  wxwx mslp ppp RRR   cm mm wxwxwxwxwxwxwx
1994-08-14 13.4 17.4 10.3 8.3-- 5.0 8.0---- 3.8------------
1994-08-13 15.3 19.1 14.2 13.1-- 6.3 4.0---- 2.4------------
1994-08-12 17.8 20.4 16.8 14.7-- 7.3 1.0---- 2.8------------
1994-08-11 20.4 26.5 17.9 14.8-- 7.3 4.7---- 2.6------------
1994-08-10 22.4 28.4 13.7 8.9-- 4.7 0.3---- 0.0------------
1994-08-09 21.5 26.7 15.7 11.4-- 5.0 2.3---- 0.0------------
1994-08-08 21.9 26.6 15.3 9.9-- 2.3 1.3---- 0.0------------
1994-08-07 21.2 26.2 16.4 12.1-- 4.0 3.0---- 0.0------------
1994-08-06 25.0 30.0 21.1 11.1-- 5.0 4.3---- 0.0------------
1994-08-05 25.6 33.2 15.2 9.8-- 0.7 1.3---- 0.0------------
1994-08-04 22.3 29.4 12.0 6.4-- 0.3 1.3---- 0.0------------
1994-08-03 23.4 28.1 17.3 14.9-- 2.3 3.0---- 0.0------------
1994-08-02 25.9 33.6 22.8 20.1-- 7.0 3.3---- 0.0------------
1994-08-01 30.5 37.1 23.2 17.8-- 1.3 3.0---- 0.0------------
1994-07-31 28.4 36.9 20.3 16.8-- 1.3 2.0---- 0.0------------
1994-07-30 27.2 36.7 18.3 16.2-- 4.7 2.3---- 0.0------------
1994-07-29 28.0 36.6 21.3 16.4-- 3.7 4.7---- 0.0------------
1994-07-28 26.5 34.2 17.8 13.5-- 0.0 0.7---- 0.0------------
1994-07-27 25.4 32.9 19.3 19.0-- 5.3 1.7---- 0.0------------
1994-07-26 26.7 34.9 19.3 13.4-- 6.3 1.7---- 0.0------------
1994-07-25 26.4 33.4 16.3 9.9-- 2.0 1.0---- 0.0------------
1994-07-24 25.5 32.0 16.1 15.6-- 2.3 2.0---- 0.0------------
1994-07-23 24.5 31.5 15.3 9.9-- 2.3 1.7---- 0.0------------
1994-07-22 23.7 30.8 13.8 8.9-- 1.3 2.0---- 0.0------------
1994-07-21 21.5 28.6 10.8 6.1-- 0.0 1.7---- 0.0------------
1994-07-20 20.1 26.1 10.8 5.2-- 0.3 2.3---- 0.0------------
1994-07-19 19.2 24.4 12.3 8.9-- 3.0 2.3---- 0.0------------
1994-07-18 18.3 24.1 12.8 12.0-- 4.7 1.3---- 0.0------------
1994-07-17 19.9 24.3 16.1 12.6-- 5.0 2.7---- 0.0------------
1994-07-16 21.4 26.1 17.9 15.9-- 6.7 2.3---- 0.0------------
1994-07-15 23.7 31.8 17.0 14.3-- 6.3 1.3---- 24.5------------
1994-07-14 25.2 31.8 15.3 10.2-- 1.7 2.7---- 0.0------------
1994-07-13 24.6 31.5 14.0 10.9-- 0.7 1.7---- 0.0------------
1994-07-12 23.7 30.0 14.8 10.8-- 1.0 0.3---- 0.0------------
1994-07-11 20.8 27.3 11.3 6.8-- 0.3 1.7---- 0.0------------
1994-07-10 18.8 24.3 12.8 11.5-- 3.7 4.0---- 0.0------------
1994-07-09 18.4 24.1 13.4 11.3-- 3.3 6.0---- 0.0------------
1994-07-08 15.5 20.6 12.3 12.1-- 7.3 2.7---- 2.0------------
1994-07-07 17.6 25.6 8.7 3.4-- 4.7 4.3---- 28.4------------
1994-07-06 19.1 24.5 14.5 11.9-- 3.3 1.7---- 0.0------------
1994-07-05 18.9 26.0 13.9 11.9-- 5.7 3.0---- 0.0------------
1994-07-04 22.5 29.6 14.3 9.3-- 1.3 2.7---- 0.0------------
1994-07-03 21.5 28.2 11.8 6.9-- 1.0 1.3---- 0.0------------
1994-07-02 18.3 25.7 7.1 5.5-- 0.3 1.7---- 0.0------------
1994-07-01 17.1 22.2 11.0 7.7-- 3.7 2.0---- 0.0------------
1994-06-30 18.1 22.8 15.5 7.8-- 4.7 3.7---- 0.0------------
1994-06-29 24.2 33.7 17.1 14.8-- 4.0 4.0---- 0.1------------
1994-06-28 21.5 27.7 12.8 11.9-- 0.0 1.7---- 0.0------------
1994-06-27 21.5 27.2 14.7 11.6-- 5.3 1.7---- 0.0------------
1994-06-26 22.2 30.1 14.0 11.2-- 3.7 4.0---- 0.0------------
1994-06-25 17.6 25.7 6.7 1.3-- 0.0 3.7---- 0.0------------
1994-06-24 14.0 19.5 7.5 5.3-- 1.3 3.7---- 0.0------------
1994-06-23 14.8 20.5 10.0 7.2-- 3.0 8.0---- 0.0------------
1994-06-22 19.7 23.3 15.2 14.0-- 3.7 8.3---- 0.0------------
1994-06-21 16.5 22.6 6.9 3.1-- 4.0 1.7---- 0.0------------
1994-06-20 14.6 18.0 11.3 8.8-- 3.7 4.0---- 0.0------------
1994-06-19 15.3 20.5 11.1 10.4-- 7.7 5.3---- 0.0------------
1994-06-18 11.4 17.2 5.4 2.3-- 8.0 3.3---- 7.2------------
1994-06-17 10.4 14.9 6.1 4.3-- 3.7 4.0---- 0.0------------
1994-06-16 11.8 14.2 9.0 8.3-- 7.3 5.3---- 1.6------------
561.1 ms

 

Źródłem pochodzenia danych jest Instytut Meteorologii i Gospodarki Wodnej – Państwowy Instytut Badawczy. Dane Instytutu Meteorologii i Gospodarki Wodnej – Państwowego Instytutu Badawczego zostały przetworzone.

Dane źródłowe można odnaleźć na stronie https://dane.imgw.pl